Time;durP1;ratioP1;P1;durP2;ratioP2;P2;SDS_P1;SDS_P2;PMS_P1;PMS_P2;Temp;Humidity;BMP_temperature;BMP_pressure;BME280_temperature;BME280_humidity;BME280_pressure;Samples;Min_cycle;Max_cycle;Signal;HPM_P1;HPM_P2
2022/12/21 00:01:34;;;;;;;509.47;88.70;;;6.50;99.90;;;;;;5050123;28;20206;-52
2022/12/21 00:04:05;;;;;;;199.37;57.30;;;6.50;99.90;;;;;;5049830;28;20224;-52
2022/12/21 00:06:35;;;;;;;794.37;121.73;;;6.50;99.90;;;;;;5038508;28;20259;-53
2022/12/21 00:09:07;;;;;;;367.40;59.10;;;6.50;99.90;;;;;;5049666;28;20225;-54
2022/12/21 00:11:36;;;;;;;426.80;67.00;;;6.50;99.90;;;;;;5050477;28;20325;-51
2022/12/21 00:14:05;;;;;;;438.23;85.73;;;6.50;99.90;;;;;;5049500;28;20236;-50
2022/12/21 00:16:35;;;;;;;544.30;79.03;;;6.50;99.90;;;;;;5036045;28;20672;-53
2022/12/21 00:19:03;;;;;;;566.67;97.00;;;6.50;99.90;;;;;;5042934;28;20234;-52
2022/12/21 00:21:35;;;;;;;706.10;96.03;;;6.50;99.90;;;;;;5049504;28;20300;-52
2022/12/21 00:24:04;;;;;;;572.03;93.83;;;6.50;99.90;;;;;;5049407;28;20682;-51
2022/12/21 00:26:34;;;;;;;213.00;51.80;;;6.50;99.90;;;;;;5049784;28;20290;-52
2022/12/21 00:29:03;;;;;;;345.07;90.23;;;6.50;99.90;;;;;;5049953;28;20205;-53
2022/12/21 00:31:33;;;;;;;611.17;103.03;;;6.50;99.90;;;;;;5049441;28;20255;-52
2022/12/21 00:34:02;;;;;;;331.00;70.87;;;6.50;99.90;;;;;;5049184;28;20293;-53
2022/12/21 00:36:31;;;;;;;237.50;66.37;;;6.50;99.90;;;;;;5048624;28;20845;-52
2022/12/21 00:39:02;;;;;;;455.87;85.23;;;6.50;99.90;;;;;;5049882;28;20429;-52
2022/12/21 00:41:30;;;;;;;487.77;100.50;;;6.50;99.90;;;;;;5049597;28;20284;-52
2022/12/21 00:43:58;;;;;;;629.47;93.00;;;6.50;99.90;;;;;;5048783;28;20298;-52
2022/12/21 00:46:29;;;;;;;1133.37;148.07;;;6.50;99.90;;;;;;5048924;28;20209;-52
2022/12/21 00:48:58;;;;;;;396.27;73.43;;;6.50;99.90;;;;;;5049404;28;20325;-51
2022/12/21 00:51:28;;;;;;;308.30;67.07;;;6.50;99.90;;;;;;5049331;28;20288;-52
2022/12/21 00:53:58;;;;;;;709.27;93.10;;;6.50;99.90;;;;;;5035360;28;20229;-51
2022/12/21 00:56:28;;;;;;;929.90;117.03;;;6.60;99.90;;;;;;5049502;28;20304;-52
2022/12/21 00:58:56;;;;;;;604.77;90.27;;;6.60;99.90;;;;;;5048765;28;20217;-52
2022/12/21 01:01:26;;;;;;;517.67;80.03;;;6.60;99.90;;;;;;5047071;28;20205;-52
2022/12/21 01:03:56;;;;;;;431.07;84.43;;;6.50;99.90;;;;;;5048274;28;20292;-52
2022/12/21 01:06:26;;;;;;;615.63;93.13;;;6.50;99.90;;;;;;5048971;28;20714;-52
2022/12/21 01:08:55;;;;;;;650.90;94.13;;;6.60;99.90;;;;;;5048512;28;20715;-53
2022/12/21 01:11:24;;;;;;;678.27;93.13;;;6.60;99.90;;;;;;5049074;28;20205;-54
2022/12/21 01:13:55;;;;;;;942.63;117.70;;;6.60;99.90;;;;;;5048842;28;20229;-51
2022/12/21 01:16:25;;;;;;;348.73;58.50;;;6.60;99.90;;;;;;5042626;28;20256;-52
2022/12/21 01:18:53;;;;;;;483.10;91.03;;;6.60;99.90;;;;;;5048216;28;20216;-53
2022/12/21 01:21:24;;;;;;;452.87;72.00;;;6.70;99.90;;;;;;5048195;28;20237;-52
2022/12/21 01:23:53;;;;;;;720.13;101.87;;;6.70;99.90;;;;;;5048690;28;20221;-51
2022/12/21 01:26:21;;;;;;;565.57;85.70;;;6.70;99.90;;;;;;5048945;28;20208;-52
2022/12/21 01:28:49;;;;;;;259.23;58.63;;;6.70;99.90;;;;;;5049137;28;20259;-52
2022/12/21 01:31:20;;;;;;;1011.17;133.23;;;6.70;99.90;;;;;;5048509;28;20206;-53
2022/12/21 01:33:48;;;;;;;346.00;58.93;;;6.70;99.90;;;;;;5048624;28;20308;-52
2022/12/21 01:36:18;;;;;;;213.20;54.83;;;6.70;99.90;;;;;;5046624;28;20223;-52
2022/12/21 01:38:47;;;;;;;598.50;70.87;;;6.80;99.90;;;;;;5049154;28;20206;-52
2022/12/21 01:41:18;;;;;;;813.33;91.07;;;6.80;99.90;;;;;;5039471;28;20576;-53
2022/12/21 01:43:49;;;;;;;237.83;57.53;;;6.80;99.90;;;;;;5034683;28;20293;-53
2022/12/21 01:46:27;;;;;;;344.17;49.73;;;6.80;99.90;;;;;;5048202;28;20213;-53
2022/12/21 01:49:04;;;;;;;760.87;89.93;;;6.70;99.90;;;;;;5036032;28;20293;-53
2022/12/21 01:51:34;;;;;;;400.70;51.33;;;6.80;99.90;;;;;;5048583;28;20598;-52
2022/12/21 01:54:06;;;;;;;805.70;141.97;;;6.80;99.90;;;;;;5047784;28;20201;-52
2022/12/21 01:56:38;;;;;;;304.03;59.40;;;6.80;99.90;;;;;;5048860;28;20217;-53
2022/12/21 01:59:13;;;;;;;371.27;55.47;;;6.80;99.90;;;;;;5048811;28;20241;-52
2022/12/21 02:01:43;;;;;;;263.87;59.90;;;6.80;99.90;;;;;;5048293;28;20312;-54
2022/12/21 02:04:11;;;;;;;316.17;41.87;;;6.80;99.90;;;;;;5048726;28;20206;-53
2022/12/21 02:06:46;;;;;;;145.77;49.03;;;6.90;99.90;;;;;;5047804;28;20300;-53
2022/12/21 02:09:16;;;;;;;212.63;57.63;;;6.90;99.90;;;;;;5048467;28;20312;-53
2022/12/21 02:11:44;;;;;;;338.83;61.87;;;6.90;99.90;;;;;;5039875;28;20726;-54
2022/12/21 02:14:13;;;;;;;452.30;63.10;;;6.90;99.90;;;;;;5047805;28;20202;-52
2022/12/21 02:16:54;;;;;;;246.10;39.77;;;7.00;99.90;;;;;;5051278;28;20253;-52
2022/12/21 02:19:55;;;;;;;258.17;60.57;;;7.00;99.90;;;;;;5051939;28;20594;-52
2022/12/21 02:22:33;;;;;;;431.40;56.60;;;7.00;99.90;;;;;;5041732;28;20228;-52
2022/12/21 02:25:29;;;;;;;432.77;52.50;;;7.00;99.90;;;;;;5038423;28;20956;-52
2022/12/21 02:28:35;;;;;;;405.97;50.37;;;6.90;99.90;;;;;;5052022;28;20251;-53
2022/12/21 02:31:16;;;;;;;850.57;118.73;;;7.00;99.90;;;;;;4990094;28;20616;-53
2022/12/21 02:33:56;;;;;;;568.70;68.67;;;6.90;99.90;;;;;;5034570;28;20241;-53
2022/12/21 02:36:32;;;;;;;268.63;44.73;;;6.90;99.90;;;;;;5050695;28;20774;-53
2022/12/21 02:39:08;;;;;;;565.13;84.30;;;6.80;99.90;;;;;;5052039;28;20246;-52
2022/12/21 02:41:47;;;;;;;414.67;50.93;;;6.80;99.90;;;;;;5051929;28;20325;-52
2022/12/21 02:44:24;;;;;;;404.57;47.43;;;6.90;99.90;;;;;;5051260;28;20645;-52
2022/12/21 02:47:01;;;;;;;199.90;39.03;;;6.90;99.90;;;;;;5051764;28;20213;-52
2022/12/21 02:49:35;;;;;;;330.67;54.20;;;6.80;99.90;;;;;;5051919;28;20240;-52
2022/12/21 02:52:08;;;;;;;481.63;51.60;;;6.90;99.90;;;;;;5050857;28;20221;-52
2022/12/21 02:54:39;;;;;;;675.77;74.90;;;6.90;99.90;;;;;;5051579;28;20240;-52
2022/12/21 02:57:08;;;;;;;794.00;80.03;;;6.80;99.90;;;;;;5051416;28;20229;-52
2022/12/21 02:59:40;;;;;;;1120.87;128.83;;;6.80;99.90;;;;;;5051642;28;20206;-52
2022/12/21 03:02:33;;;;;;;473.50;79.70;;;6.80;99.90;;;;;;5050871;28;20238;-52
2022/12/21 03:05:19;;;;;;;710.07;80.00;;;6.90;99.90;;;;;;5041104;28;20219;-52
2022/12/21 03:08:08;;;;;;;291.47;50.13;;;6.80;99.90;;;;;;5051147;28;20263;-52
2022/12/21 03:10:51;;;;;;;323.93;53.87;;;6.90;99.90;;;;;;5051334;28;20237;-52
2022/12/21 03:13:29;;;;;;;380.40;49.60;;;6.90;99.90;;;;;;5050957;28;20274;-52
2022/12/21 03:16:02;;;;;;;562.77;60.43;;;6.90;99.90;;;;;;5051311;28;20212;-51
2022/12/21 03:18:36;;;;;;;181.30;51.77;;;7.00;99.90;;;;;;5050966;28;20218;-52
2022/12/21 03:21:08;;;;;;;277.10;49.73;;;7.00;99.90;;;;;;5050588;28;20201;-52
2022/12/21 03:23:42;;;;;;;239.80;44.70;;;7.00;99.90;;;;;;5050252;28;20233;-52
2022/12/21 03:26:16;;;;;;;212.20;46.30;;;7.00;99.90;;;;;;5050831;28;20228;-52
2022/12/21 03:28:46;;;;;;;129.77;37.13;;;7.00;99.90;;;;;;5050919;28;20237;-53
2022/12/21 03:31:19;;;;;;;288.87;49.07;;;7.00;99.90;;;;;;5050816;28;20642;-52
2022/12/21 03:33:53;;;;;;;320.70;47.67;;;7.00;99.90;;;;;;5049362;28;20211;-53
2022/12/21 03:36:25;;;;;;;346.50;51.73;;;7.10;99.90;;;;;;5049902;28;20209;-52
2022/12/21 03:38:58;;;;;;;233.47;45.57;;;7.10;99.90;;;;;;5050747;28;20264;-53
2022/12/21 03:41:31;;;;;;;219.57;42.50;;;7.10;99.90;;;;;;5050433;28;20210;-53
2022/12/21 03:44:02;;;;;;;396.63;49.03;;;7.10;99.90;;;;;;5050043;28;20816;-52
2022/12/21 03:46:35;;;;;;;177.13;35.13;;;7.00;99.90;;;;;;5050547;28;20213;-53
2022/12/21 03:49:10;;;;;;;183.97;48.23;;;7.10;99.90;;;;;;5050830;28;20201;-53
2022/12/21 03:51:45;;;;;;;625.47;97.07;;;7.10;99.90;;;;;;5049408;28;20268;-52
2022/12/21 03:54:18;;;;;;;257.27;37.83;;;7.10;99.90;;;;;;5049939;28;20232;-52
2022/12/21 03:56:46;;;;;;;75.97;40.33;;;7.20;99.90;;;;;;5047393;28;20730;-52
2022/12/21 03:59:16;;;;;;;186.40;32.73;;;7.20;99.90;;;;;;5050268;28;20763;-52
2022/12/21 04:01:51;;;;;;;329.20;41.87;;;7.20;99.90;;;;;;5049851;28;20257;-53
2022/12/21 04:04:28;;;;;;;688.00;75.73;;;7.20;99.90;;;;;;5049938;28;20252;-51
2022/12/21 04:07:00;;;;;;;625.97;66.13;;;7.20;99.90;;;;;;5049989;28;20216;-52
2022/12/21 04:09:28;;;;;;;518.53;61.23;;;7.20;99.90;;;;;;5049940;28;20642;-52
2022/12/21 04:14:51;;;;;;;503.57;61.50;;;7.20;99.90;;;;;;5031576;28;21381;-52
2022/12/21 04:17:19;;;;;;;1146.93;134.00;;;7.20;99.90;;;;;;5039471;28;20279;-52
2022/12/21 04:20:02;;;;;;;562.33;63.30;;;7.20;99.90;;;;;;5049833;28;20296;-52
2022/12/21 04:28:10;;;;;;;836.03;106.60;;;7.20;99.90;;;;;;5049646;28;20255;-52
2022/12/21 04:30:59;;;;;;;438.27;56.23;;;7.30;99.90;;;;;;5039551;28;20212;-52
2022/12/21 04:33:29;;;;;;;760.90;95.43;;;7.30;99.90;;;;;;5048316;28;20222;-52
2022/12/21 04:38:46;;;;;;;303.73;49.37;;;7.30;99.90;;;;;;5049492;28;20803;-52
2022/12/21 04:41:14;;;;;;;478.00;73.60;;;7.20;99.90;;;;;;5049882;28;20304;-52
2022/12/21 04:43:42;;;;;;;225.63;53.30;;;7.30;99.90;;;;;;5048923;28;20714;-52
2022/12/21 04:46:13;;;;;;;372.80;60.10;;;7.30;99.90;;;;;;5049562;28;20213;-52
2022/12/21 04:48:41;;;;;;;568.80;75.87;;;7.30;99.90;;;;;;5048497;28;20290;-52
2022/12/21 04:51:13;;;;;;;1484.27;209.57;;;7.30;99.90;;;;;;5049251;28;20221;-52
2022/12/21 04:53:41;;;;;;;551.90;78.33;;;7.30;99.90;;;;;;5036477;28;20233;-51
2022/12/21 04:56:10;;;;;;;171.20;38.03;;;7.30;99.90;;;;;;5049486;28;20296;-51
2022/12/21 04:58:38;;;;;;;377.87;46.47;;;7.30;99.90;;;;;;5048530;28;20321;-52
2022/12/21 05:01:09;;;;;;;84.50;38.33;;;7.30;99.90;;;;;;5048601;28;20255;-52
2022/12/21 05:03:38;;;;;;;593.17;71.40;;;7.30;99.90;;;;;;5048734;28;20240;-52
2022/12/21 05:06:06;;;;;;;370.97;94.43;;;7.40;99.90;;;;;;5049236;28;20292;-53
2022/12/21 05:08:37;;;;;;;262.93;53.63;;;7.30;99.90;;;;;;5049045;28;20217;-53
2022/12/21 05:11:10;;;;;;;454.20;82.83;;;7.30;99.90;;;;;;5048844;28;20206;-52
2022/12/21 05:13:39;;;;;;;316.13;56.10;;;7.30;99.90;;;;;;5048461;28;20714;-52
2022/12/21 05:16:10;;;;;;;255.53;41.27;;;7.30;99.90;;;;;;5049004;28;20209;-52
2022/12/21 05:18:38;;;;;;;134.43;42.30;;;7.40;99.90;;;;;;5048697;28;20687;-52
2022/12/21 05:21:06;;;;;;;161.53;38.27;;;7.40;99.90;;;;;;5048772;28;20259;-52
2022/12/21 05:23:36;;;;;;;407.17;43.07;;;7.30;99.90;;;;;;5047732;28;20302;-51
2022/12/21 05:26:05;;;;;;;221.03;38.20;;;7.40;99.90;;;;;;5047705;28;20640;-52
2022/12/21 05:28:43;;;;;;;397.60;44.00;;;7.40;99.90;;;;;;5036824;28;20198;-52
2022/12/21 05:31:12;;;;;;;482.10;51.27;;;7.40;99.90;;;;;;5048590;28;20882;-53
2022/12/21 05:33:40;;;;;;;395.63;54.17;;;7.40;99.90;;;;;;5048160;28;20233;-52
2022/12/21 05:36:11;;;;;;;482.83;55.13;;;7.40;99.90;;;;;;5047808;28;20739;-52
2022/12/21 05:38:41;;;;;;;728.87;75.00;;;7.40;99.90;;;;;;5048902;28;20214;-52
2022/12/21 05:41:10;;;;;;;460.13;53.57;;;7.40;99.90;;;;;;5048975;28;20215;-51
2022/12/21 05:43:39;;;;;;;166.27;42.57;;;7.40;99.90;;;;;;5048389;28;20253;-51
2022/12/21 05:46:09;;;;;;;401.43;48.47;;;7.40;99.90;;;;;;5052141;28;20679;-52
2022/12/21 05:48:38;;;;;;;156.33;42.50;;;7.40;99.90;;;;;;5039072;28;20251;-51
2022/12/21 05:51:10;;;;;;;276.87;57.37;;;7.40;99.90;;;;;;5052605;28;20701;-52
2022/12/21 05:53:45;;;;;;;279.43;47.30;;;7.40;99.90;;;;;;5051839;28;20667;-52
2022/12/21 05:56:13;;;;;;;301.23;44.53;;;7.40;99.90;;;;;;5052607;28;20736;-52
2022/12/21 05:58:41;;;;;;;247.73;45.00;;;7.40;99.90;;;;;;5052242;28;20265;-52
2022/12/21 06:01:11;;;;;;;175.70;32.53;;;7.40;99.90;;;;;;5052719;28;20260;-52
2022/12/21 06:03:40;;;;;;;398.30;56.60;;;7.40;99.90;;;;;;5051918;28;20237;-51
2022/12/21 06:06:10;;;;;;;251.93;36.60;;;7.30;99.90;;;;;;5052616;28;20274;-52
2022/12/21 06:08:38;;;;;;;312.33;39.60;;;7.30;99.90;;;;;;5052355;28;20206;-52
2022/12/21 06:11:09;;;;;;;218.57;34.20;;;7.20;99.90;;;;;;5052052;28;20225;-52
2022/12/21 06:13:38;;;;;;;160.03;34.17;;;7.20;99.90;;;;;;5052050;28;20230;-52
2022/12/21 06:16:08;;;;;;;140.57;44.50;;;7.20;99.90;;;;;;5052508;28;20209;-52
2022/12/21 06:18:37;;;;;;;201.70;40.30;;;7.20;99.90;;;;;;5044133;28;20217;-52
2022/12/21 06:21:06;;;;;;;139.47;34.13;;;7.20;99.90;;;;;;5041268;28;20283;-52
2022/12/21 06:23:35;;;;;;;155.50;37.83;;;7.20;99.90;;;;;;5051659;28;20217;-52
2022/12/21 06:26:04;;;;;;;95.03;39.80;;;7.20;99.90;;;;;;5051290;28;20205;-52
2022/12/21 06:28:34;;;;;;;62.43;37.73;;;7.20;99.90;;;;;;5051488;28;20206;-52
2022/12/21 06:31:04;;;;;;;83.07;32.47;;;7.30;99.90;;;;;;5052251;28;20244;-52
2022/12/21 06:33:32;;;;;;;86.17;29.07;;;7.30;99.90;;;;;;5050957;28;20233;-51
2022/12/21 06:36:00;;;;;;;170.80;45.33;;;7.20;99.90;;;;;;5051367;28;20260;-51
2022/12/21 06:38:29;;;;;;;106.50;34.87;;;7.30;99.90;;;;;;5050589;28;20969;-51
2022/12/21 06:40:58;;;;;;;122.47;42.93;;;7.20;99.90;;;;;;5051555;28;20198;-52
2022/12/21 06:43:28;;;;;;;120.80;40.83;;;7.20;99.90;;;;;;5051321;28;20218;-51
2022/12/21 06:45:59;;;;;;;162.57;29.40;;;7.20;99.90;;;;;;5040949;28;20635;-52
2022/12/21 06:48:28;;;;;;;245.07;32.40;;;7.20;99.90;;;;;;5051747;28;20288;-52
2022/12/21 06:50:58;;;;;;;136.03;42.07;;;7.20;99.90;;;;;;5050988;28;20642;-53
2022/12/21 06:53:29;;;;;;;130.53;43.03;;;7.20;99.90;;;;;;5050432;28;20290;-52
2022/12/21 06:56:01;;;;;;;96.87;41.33;;;7.20;99.90;;;;;;5050806;28;20305;-52
2022/12/21 06:58:29;;;;;;;198.47;51.20;;;7.20;99.90;;;;;;5044894;28;20288;-52
2022/12/21 07:01:04;;;;;;;187.33;60.80;;;7.10;99.90;;;;;;5051075;28;20732;-52
2022/12/21 07:03:32;;;;;;;148.60;39.30;;;7.10;99.90;;;;;;5050505;28;20231;-51
2022/12/21 07:06:08;;;;;;;118.80;33.73;;;7.20;99.90;;;;;;5050726;28;20200;-52
2022/12/21 07:08:36;;;;;;;101.40;32.17;;;7.20;99.90;;;;;;5050885;28;20217;-52
2022/12/21 07:11:07;;;;;;;73.23;33.30;;;7.20;99.90;;;;;;5050039;28;20278;-53
2022/12/21 07:13:36;;;;;;;141.60;41.20;;;7.20;99.90;;;;;;5050004;28;20316;-52
2022/12/21 07:16:06;;;;;;;339.57;61.63;;;7.30;99.90;;;;;;5050833;28;20210;-52
2022/12/21 07:18:35;;;;;;;263.00;55.80;;;7.20;99.90;;;;;;5048564;28;20209;-52
2022/12/21 07:21:05;;;;;;;96.50;35.83;;;7.20;99.90;;;;;;5045200;28;20264;-53
2022/12/21 07:23:35;;;;;;;187.60;51.13;;;7.20;99.90;;;;;;5050833;28;20314;-53
2022/12/21 07:26:06;;;;;;;252.00;88.10;;;7.10;99.90;;;;;;5050814;28;20634;-53
2022/12/21 07:28:36;;;;;;;64.63;30.67;;;7.10;99.90;;;;;;5047752;28;20206;-53
2022/12/21 07:31:08;;;;;;;55.03;32.13;;;7.20;99.90;;;;;;5050226;28;20667;-53
2022/12/21 07:33:37;;;;;;;383.67;79.97;;;7.20;99.90;;;;;;5036448;28;20268;-53
2022/12/21 07:36:07;;;;;;;85.03;39.57;;;7.20;99.90;;;;;;5049028;28;20216;-53
2022/12/21 07:38:36;;;;;;;60.87;33.40;;;7.10;99.90;;;;;;5050452;28;20220;-52
2022/12/21 07:41:07;;;;;;;60.30;24.17;;;7.10;99.90;;;;;;5050305;28;20713;-52
2022/12/21 07:43:36;;;;;;;92.63;27.77;;;7.20;99.90;;;;;;5049857;28;20237;-54
2022/12/21 07:46:06;;;;;;;29.50;22.37;;;7.20;99.90;;;;;;5050042;28;20275;-53
2022/12/21 07:48:34;;;;;;;36.37;29.60;;;7.20;99.90;;;;;;5044380;28;20202;-52
2022/12/21 07:51:03;;;;;;;26.87;23.27;;;7.20;99.90;;;;;;5050582;28;20201;-52
2022/12/21 07:53:33;;;;;;;93.30;34.57;;;7.30;99.90;;;;;;5047672;28;20307;-52
2022/12/21 07:56:02;;;;;;;31.70;20.63;;;7.30;99.90;;;;;;5048526;28;20209;-52
2022/12/21 07:58:30;;;;;;;115.07;37.90;;;7.20;99.90;;;;;;5048694;28;20217;-53
2022/12/21 08:01:06;;;;;;;75.80;32.60;;;7.30;99.90;;;;;;5049280;28;20310;-53
2022/12/21 08:03:35;;;;;;;46.70;32.90;;;7.20;99.90;;;;;;5048545;28;20299;-53
2022/12/21 08:06:04;;;;;;;50.53;31.00;;;7.30;99.90;;;;;;5049852;28;20237;-53
2022/12/21 08:08:32;;;;;;;792.93;266.57;;;7.30;99.90;;;;;;5050123;28;20802;-52
2022/12/21 08:11:01;;;;;;;50.20;32.70;;;7.30;99.90;;;;;;5050065;28;20206;-51
2022/12/21 08:13:29;;;;;;;67.50;23.17;;;7.30;99.90;;;;;;5049637;28;20221;-52
2022/12/21 08:16:01;;;;;;;91.43;35.50;;;7.30;99.90;;;;;;5048328;28;20296;-52
2022/12/21 08:18:32;;;;;;;130.00;34.10;;;7.30;99.90;;;;;;5048622;28;20292;-53
2022/12/21 08:21:00;;;;;;;89.40;21.27;;;7.20;99.90;;;;;;5049683;28;20229;-53
2022/12/21 08:23:28;;;;;;;33.13;28.50;;;7.20;99.90;;;;;;5049384;28;20263;-53
2022/12/21 08:26:01;;;;;;;152.90;34.80;;;7.30;99.90;;;;;;5050065;28;20260;-52
2022/12/21 08:28:29;;;;;;;127.53;34.33;;;7.30;99.90;;;;;;5050088;28;20255;-54
2022/12/21 08:31:01;;;;;;;197.27;41.60;;;7.30;99.90;;;;;;5049735;28;20241;-54
2022/12/21 08:33:31;;;;;;;88.80;23.43;;;7.30;99.90;;;;;;5048283;28;20228;-52
2022/12/21 08:35:59;;;;;;;94.30;24.13;;;7.30;99.90;;;;;;5039594;28;20284;-52
2022/12/21 08:38:27;;;;;;;291.47;93.37;;;7.30;99.90;;;;;;5048395;28;20609;-53
2022/12/21 08:41:16;;;;;;;316.87;36.73;;;7.30;99.90;;;;;;5049526;28;20229;-52
2022/12/21 08:43:44;;;;;;;249.70;67.87;;;7.30;99.90;;;;;;5048324;28;20584;-51
2022/12/21 08:46:13;;;;;;;104.97;26.17;;;7.20;99.90;;;;;;5048747;28;20213;-52
2022/12/21 08:48:43;;;;;;;138.83;27.70;;;7.30;99.90;;;;;;5049656;28;20228;-54
2022/12/21 08:51:11;;;;;;;162.33;33.27;;;7.30;99.90;;;;;;5049520;28;20769;-53
2022/12/21 08:53:39;;;;;;;176.30;37.70;;;7.40;99.90;;;;;;5048973;28;20308;-52
2022/12/21 08:56:08;;;;;;;63.10;20.77;;;7.40;99.90;;;;;;5049340;28;20201;-52
2022/12/21 08:58:36;;;;;;;93.97;21.53;;;7.40;99.90;;;;;;5048913;28;20674;-53
2022/12/21 09:01:04;;;;;;;235.60;37.70;;;7.40;99.90;;;;;;5049422;28;20287;-51
2022/12/21 09:03:33;;;;;;;135.60;34.57;;;7.40;99.90;;;;;;5048804;28;20229;-51
2022/12/21 09:06:03;;;;;;;198.53;31.83;;;7.40;99.90;;;;;;5048805;28;20214;-52
2022/12/21 09:08:37;;;;;;;254.23;34.10;;;7.50;99.90;;;;;;5048949;28;20218;-54
2022/12/21 09:11:07;;;;;;;306.60;39.17;;;7.50;99.90;;;;;;5047888;28;20253;-52
2022/12/21 09:13:35;;;;;;;138.87;23.73;;;7.50;99.90;;;;;;5048663;28;20229;-53
2022/12/21 09:16:11;;;;;;;155.27;33.97;;;7.50;99.90;;;;;;5048785;28;20300;-54
2022/12/21 09:18:39;;;;;;;261.27;30.10;;;7.50;99.90;;;;;;5049044;28;20296;-52
2022/12/21 09:21:09;;;;;;;759.93;122.13;;;7.60;99.90;;;;;;5035283;28;20234;-52
2022/12/21 09:23:37;;;;;;;259.73;37.93;;;7.50;99.90;;;;;;5048173;28;20772;-52
2022/12/21 09:26:06;;;;;;;320.67;44.90;;;7.50;99.90;;;;;;5048935;28;20260;-53
2022/12/21 09:28:34;;;;;;;187.43;26.73;;;7.50;99.90;;;;;;5049296;28;20236;-51
2022/12/21 09:31:07;;;;;;;408.63;52.17;;;7.50;99.90;;;;;;5048848;28;20284;-52
2022/12/21 09:33:36;;;;;;;448.13;60.13;;;7.50;99.90;;;;;;5043427;28;20229;-52
2022/12/21 09:36:04;;;;;;;306.60;41.07;;;7.50;99.90;;;;;;5047279;28;20274;-51
2022/12/21 09:38:34;;;;;;;273.40;40.17;;;7.50;99.90;;;;;;5049015;28;20288;-52
2022/12/21 09:41:03;;;;;;;159.00;36.90;;;7.50;99.90;;;;;;5042515;28;20316;-52
2022/12/21 09:43:40;;;;;;;142.73;30.77;;;7.60;99.90;;;;;;5046180;28;20217;-52
2022/12/21 09:46:11;;;;;;;323.90;51.03;;;7.60;99.90;;;;;;5048780;28;20304;-52
2022/12/21 09:48:43;;;;;;;204.80;22.43;;;7.60;99.90;;;;;;5049004;28;20198;-52
2022/12/21 09:51:16;;;;;;;405.90;57.23;;;7.60;99.90;;;;;;5048825;28;20275;-53
2022/12/21 09:53:50;;;;;;;401.83;78.00;;;7.60;99.90;;;;;;5048168;28;20257;-52
2022/12/21 09:56:21;;;;;;;389.77;77.13;;;7.60;99.90;;;;;;5048855;28;20209;-53
2022/12/21 09:58:51;;;;;;;586.47;95.67;;;7.60;99.90;;;;;;5048625;28;20832;-53
2022/12/21 10:01:37;;;;;;;564.20;96.80;;;7.60;99.90;;;;;;5048511;28;20236;-51
2022/12/21 10:04:26;;;;;;;504.43;90.97;;;7.70;99.90;;;;;;5048260;28;20675;-52
2022/12/21 10:07:32;;;;;;;280.60;31.47;;;7.60;99.90;;;;;;5048360;28;20215;-52
2022/12/21 10:10:15;;;;;;;563.90;65.93;;;7.70;99.90;;;;;;5048926;28;20898;-52
2022/12/21 10:12:53;;;;;;;387.67;51.87;;;7.70;99.90;;;;;;5047731;28;20225;-52
2022/12/21 10:15:29;;;;;;;699.30;176.13;;;7.70;99.90;;;;;;5047932;28;20201;-52
2022/12/21 10:18:09;;;;;;;336.37;36.83;;;7.80;99.90;;;;;;5048589;28;20205;-51
2022/12/21 10:20:48;;;;;;;212.57;31.17;;;7.80;99.90;;;;;;5048659;28;20279;-52
2022/12/21 10:23:22;;;;;;;568.70;81.60;;;7.80;99.90;;;;;;5047614;28;20278;-52
2022/12/21 10:25:56;;;;;;;420.47;74.50;;;7.90;99.90;;;;;;5048465;28;20233;-52
2022/12/21 10:28:35;;;;;;;350.17;52.47;;;7.90;99.90;;;;;;5048766;28;20251;-52
2022/12/21 10:31:06;;;;;;;632.70;84.10;;;7.80;99.90;;;;;;5048439;28;20288;-52
2022/12/21 10:33:39;;;;;;;397.60;38.40;;;7.90;99.90;;;;;;5051669;28;20225;-52
2022/12/21 10:36:14;;;;;;;433.60;54.07;;;7.90;99.90;;;;;;5052175;28;20209;-52
2022/12/21 10:38:43;;;;;;;360.90;44.63;;;7.80;99.90;;;;;;5038255;28;20263;-52
2022/12/21 10:41:18;;;;;;;293.87;43.67;;;7.90;99.90;;;;;;5052157;28;20229;-52
2022/12/21 10:43:48;;;;;;;501.43;58.57;;;7.90;99.90;;;;;;5051438;28;20701;-53
2022/12/21 10:46:18;;;;;;;461.07;54.93;;;7.90;99.90;;;;;;5052031;28;20210;-52
2022/12/21 10:48:48;;;;;;;425.10;60.17;;;7.90;99.90;;;;;;5051796;28;20666;-52
2022/12/21 10:51:26;;;;;;;739.00;104.87;;;8.00;99.90;;;;;;5050946;28;20710;-52
2022/12/21 10:53:59;;;;;;;465.33;67.47;;;8.00;99.90;;;;;;5050197;28;20686;-51
2022/12/21 10:56:30;;;;;;;569.17;113.93;;;8.00;99.90;;;;;;5051140;28;20239;-52
2022/12/21 10:59:06;;;;;;;919.67;144.63;;;8.00;99.90;;;;;;5050507;28;20288;-52
2022/12/21 11:01:34;;;;;;;396.10;76.07;;;8.10;99.90;;;;;;5051990;28;20240;-52
2022/12/21 11:04:13;;;;;;;406.77;72.07;;;8.10;99.90;;;;;;5050996;28;20209;-52
2022/12/21 11:06:59;;;;;;;713.77;124.83;;;8.20;99.90;;;;;;5051285;28;20263;-52
2022/12/21 11:09:55;;;;;;;492.73;88.73;;;8.20;99.90;;;;;;5051357;28;20212;-52
2022/12/21 11:12:50;;;;;;;647.63;82.40;;;8.20;99.90;;;;;;5050601;28;20223;-52
2022/12/21 11:15:22;;;;;;;492.70;61.63;;;8.10;99.90;;;;;;5051483;28;20201;-52
2022/12/21 11:18:35;;;;;;;751.23;133.97;;;8.10;99.90;;;;;;5050766;28;20689;-52
2022/12/21 11:21:06;;;;;;;504.63;94.00;;;8.20;99.90;;;;;;5048871;28;20225;-52
2022/12/21 11:23:34;;;;;;;626.40;94.40;;;8.30;99.90;;;;;;5041125;28;20229;-51
2022/12/21 11:26:02;;;;;;;493.93;73.43;;;8.30;99.90;;;;;;5038672;28;21060;-52
2022/12/21 11:28:32;;;;;;;654.13;110.30;;;8.40;99.90;;;;;;5036894;28;20210;-52
2022/12/21 11:31:05;;;;;;;649.67;106.73;;;8.50;99.90;;;;;;5050138;28;20674;-52
2022/12/21 11:33:34;;;;;;;427.17;74.20;;;8.60;99.90;;;;;;5049832;28;20261;-52
2022/12/21 11:36:08;;;;;;;624.40;113.33;;;8.60;99.90;;;;;;5049855;28;20201;-52
2022/12/21 11:38:38;;;;;;;400.20;88.73;;;8.60;99.90;;;;;;5050135;28;20207;-52
2022/12/21 11:41:15;;;;;;;311.23;66.80;;;8.70;99.90;;;;;;5050774;28;20215;-52
2022/12/21 11:43:48;;;;;;;197.80;54.47;;;8.70;99.90;;;;;;5049455;28;20260;-52
2022/12/21 11:46:32;;;;;;;595.97;132.20;;;8.70;99.90;;;;;;5050112;28;20199;-52
2022/12/21 11:50:04;;;;;;;432.30;83.43;;;8.80;99.90;;;;;;5039612;28;20210;-52
2022/12/21 11:52:46;;;;;;;441.50;76.87;;;8.80;99.90;;;;;;5038029;28;20232;-52
2022/12/21 11:55:23;;;;;;;517.53;88.27;;;8.80;99.90;;;;;;5050272;28;20209;-52
2022/12/21 11:57:59;;;;;;;857.37;104.30;;;8.70;99.90;;;;;;5050528;28;20232;-52
2022/12/21 12:00:36;;;;;;;317.07;46.73;;;8.70;99.90;;;;;;5046506;28;20209;-52
2022/12/21 12:03:40;;;;;;;456.13;54.60;;;8.70;99.90;;;;;;5049284;28;20752;-52
2022/12/21 12:06:45;;;;;;;632.70;89.13;;;8.60;99.90;;;;;;5049727;28;20205;-52
2022/12/21 12:09:48;;;;;;;585.17;69.13;;;8.60;99.90;;;;;;5050029;28;20213;-52
2022/12/21 12:12:24;;;;;;;789.30;135.23;;;8.60;99.90;;;;;;5049200;28;20252;-52
2022/12/21 12:15:14;;;;;;;631.33;93.10;;;8.60;99.90;;;;;;5049400;28;20255;-52
2022/12/21 12:17:55;;;;;;;945.83;182.90;;;8.60;99.90;;;;;;5049437;28;20671;-52
2022/12/21 12:20:39;;;;;;;1549.03;274.43;;;8.60;99.90;;;;;;5049476;28;20845;-52
2022/12/21 12:23:14;;;;;;;895.30;147.67;;;8.70;99.90;;;;;;5048916;28;20598;-52
2022/12/21 12:25:55;;;;;;;1190.90;193.37;;;8.80;99.90;;;;;;5049618;28;20212;-52
2022/12/21 12:28:43;;;;;;;1593.10;230.70;;;8.80;99.90;;;;;;5049928;28;20231;-51
2022/12/21 12:31:23;;;;;;;1842.93;318.67;;;8.90;99.90;;;;;;5048681;28;20210;-51
2022/12/21 12:34:14;;;;;;;1136.37;221.77;;;9.00;99.90;;;;;;5049235;28;20288;-52
2022/12/21 12:36:52;;;;;;;1957.90;252.33;;;9.00;99.90;;;;;;5048136;28;20616;-53
2022/12/21 12:39:33;;;;;;;1428.47;250.20;;;9.10;99.90;;;;;;5049910;28;20279;-52
2022/12/21 12:42:08;;;;;;;1999.90;399.63;;;9.20;99.90;;;;;;5047289;28;20230;-52
2022/12/21 12:44:48;;;;;;;1753.33;328.67;;;9.30;99.90;;;;;;5048632;28;20204;-52
2022/12/21 12:47:32;;;;;;;1055.23;164.33;;;9.30;99.90;;;;;;5037035;28;20240;-52
2022/12/21 12:50:11;;;;;;;980.03;209.30;;;9.40;99.90;;;;;;5047811;28;20274;-52
2022/12/21 12:53:12;;;;;;;742.33;127.63;;;9.40;99.90;;;;;;5048659;28;20271;-52
2022/12/21 12:55:51;;;;;;;798.63;149.43;;;9.40;99.90;;;;;;5045864;28;20717;-51
2022/12/21 12:58:29;;;;;;;550.53;108.23;;;9.50;99.90;;;;;;5049003;28;20252;-52
2022/12/21 13:01:04;;;;;;;330.33;66.43;;;9.60;99.90;;;;;;5048383;28;20249;-52
2022/12/21 13:03:48;;;;;;;657.17;129.50;;;9.80;99.90;;;;;;5046477;28;20644;-51
2022/12/21 13:06:31;;;;;;;1999.90;484.03;;;9.80;99.90;;;;;;5048087;28;20668;-51
2022/12/21 13:09:08;;;;;;;380.60;86.83;;;9.80;99.90;;;;;;5036374;28;20216;-51